Fort Worth - NOAA's Hourly Summary for Tuesday, August 25, 2026
Hour Temp
(f)
RH
(%)
Solar Rad.
(MJ/m2)
Rainfall
(in)
Wind
(mph)
Battery
(volts)
8/25/2026 12:00 AM 93 24 0 0 6.03 0
8/25/2026 1:00 AM 92 26 0 0 6.13 0
8/25/2026 2:00 AM 91 28 0 0 6.54 0
8/25/2026 3:00 AM 88 31 0 0 5.31 0
8/25/2026 4:00 AM 87 34 0 0 5.06 0
8/25/2026 5:00 AM 86 38 0 0 2.7 0
8/25/2026 6:00 AM 84 42 0 0 0.51 0
8/25/2026 7:00 AM 84 43 0.03 0 0.81 0
8/25/2026 8:00 AM 84 46 0.16 0 2.27 0
8/25/2026 9:00 AM 84 46 0.31 0 4.27 0
8/25/2026 10:00 AM 87 41 0.99 0 3.21 0
8/25/2026 11:00 AM 91 36 1.71 0 3.65 0
8/25/2026 12:00 PM 94 32 1.98 0 1.39 0
8/25/2026 1:00 PM 97 28 1.91 0 2.34 0
8/25/2026 2:00 PM 99 24 1.93 0 5.79 0
8/25/2026 3:00 PM 100 20 2.2 0 5.4 0
8/25/2026 4:00 PM 101 15 1.67 0 5.11 0
8/25/2026 5:00 PM 101 15 1.53 0 6.07 0
8/25/2026 6:00 PM 100 17 0.6 0 2.8 0
8/25/2026 7:00 PM 98 17 0.11 0 2.11 0
8/25/2026 8:00 PM 96 21 0 0 2.42 0
8/25/2026 9:00 PM 94 23 0 0 2.07 0
8/25/2026 10:00 PM 92 27 0 0 2.02 0
8/25/2026 11:00 PM 91 29 0 0 1.83 0
Data Summary 92 29 15.13 0.00 3.58 0.00